KVJI/VJI METAR and TAF weather

Enter ICAO airport designator
Station Type Date Time Source
KVJI METAR 2019/02/18 03:55 UTC NOAA

KVJI 180355Z AUTO 00000KT 3SM RA 06/06 A2989 RMK AO2 P0006 T00550055


Station Type Date Time Source
KVJI Decoded METAR 2019/02/18 03:55 UTC NOAA

Abingdon, VA, United States (KVJI) 36-41N 082-02W
Feb 17, 2019 - 10:55 PM EST / 2019.02.18 0355 UTC
Wind: Calm:0
Visibility: 3 mile(s):0
Weather: rain
Precipitation last hour: 0.06 inches
Temperature: 41.9 F (5.5 C)
Dew Point: 41.9 F (5.5 C)
Relative Humidity: 100%
Pressure (altimeter): 29.89 in. Hg (1012 hPa)
ob: KVJI 180355Z AUTO 00000KT 3SM RA 06/06 A2989 RMK AO2 P0006 T00550055
cycle: 4

Station Type Date Time Source
KVJI TAF UTC NOAA

Error!


Example: see airport list